Queen Elizabeth — ZCEF2 — position and weather

sailwx.info

Track history (hours):
 
Tides and Currents Weather Stations Pressure Air Temp Water Temp Dewpoint Dewpoint Depression Visibility Wind Speed Wind Dir Waves Ship Positions

Queen Elizabeth

Last reported at 2017-Sep-22 22:00 UTC. Time now 2017-Sep-23 02:22 UTC.
Position N 36°48' W 009°12'.

Length 294 m; draft 8 m.

Type: Passenger vessel. MMSI: 310625000.

Wind from 010 at 20 knots

Barometer 1017.7 mb
Air temperature 16.0 ° C
Visibility: greater than 10.8 NM
Dewpoint 14.3 ° C
Water temperature 18.0 ° C

Date/timePositionNaut miles runAvg speedWind from/ knotsBaromVisibWave heightAir tempDewpointWater temp
2017-Sep-22 22:00N 36°48' W 009°12'9218.4 010 / 201017.710.8 16.014.318.0
2017-Sep-22 17:00N 36°18' W 007°24'25113.2 320 / 81015.8 23.018.324.0
2017-Sep-21 22:00N 36°24' W 002°12'2214.7 040 / 101016.510.8 23.019.925.0
2017-Sep-21 20:31N 36°30' W 001°46'120.2
2017-Sep-21 20:27N 36°30' W 001°44'920.2
2017-Sep-21 20:00N 36°32' W 001°33'1020.3
2017-Sep-21 19:30N 36°35' W 001°21'1121.2
2017-Sep-21 19:00N 36°37' W 001°08'1121.7
2017-Sep-21 18:30N 36°39' W 000°55'1121.6
2017-Sep-21 18:00N 36°41' W 000°42'1121.8
2017-Sep-21 17:30N 36°43' W 000°29'1121.6
2017-Sep-21 17:00N 36°45' W 000°15'8899.4
2017-Sep-21 17:00N 36°42' W 000°24'2035.5 040 / 201014.9 25.520.225.0
2017-Sep-21 16:26N 36°48' W 000°01'921.8
2017-Sep-21 16:01N 36°51' E 000°11'1121.8
2017-Sep-21 15:31N 36°53' E 000°24'1121.8
2017-Sep-21 15:00N 36°55' E 000°37'1121.6
2017-Sep-21 14:30N 36°56' E 000°51'1121.4
2017-Sep-21 14:00N 36°58' E 001°04'1121.8
2017-Sep-21 13:30N 37°01' E 001°18'1121.9
2017-Sep-21 12:59N 37°03' E 001°31'4621.4
2017-Sep-21 10:49N 37°12' E 002°28'2513.9
2017-Sep-21 09:00N 37°12' E 003°00'6321.1 100 / 241017.710.8 23.018.326.0
2017-Sep-21 06:00N 37°24' E 004°18'9624.0 110 / 161018.1 22.014.425.0
2017-Sep-21 02:00N 37°36' E 006°18'8220.4 130 / 121019.810.8 21.014.225.0
2017-Sep-20 22:00N 37°48' E 008°00'20919.5 350 / 141021.110.8 21.010.025.0
2017-Sep-20 11:15N 38°15' E 012°23'720.3
2017-Sep-20 10:53N 38°16' E 012°33'720.2
2017-Sep-20 10:30N 38°17' E 012°42'1020.2
2017-Sep-20 10:01N 38°18' E 012°55'4248.9
2017-Sep-20 10:00N 38°18' E 013°00'612.6 300 / 171016.510.8 22.0 8.926.0
2017-Sep-20 09:31N 38°20' E 013°07'1019.8
2017-Sep-20 09:01N 38°21' E 013°20'1019.5
2017-Sep-20 08:31N 38°21' E 013°32'1019.4
2017-Sep-20 08:01N 38°21' E 013°45'1019.1
2017-Sep-20 07:31N 38°21' E 013°57'918.8
2017-Sep-20 07:01N 38°20' E 014°09'1019.2
2017-Sep-20 06:29N 38°21' E 014°22'1019.9
2017-Sep-20 06:01N 38°20' E 014°34'1020.1
2017-Sep-20 05:30N 38°20' E 014°47'1020.1
2017-Sep-20 05:00N 38°20' E 014°60'1020.5
2017-Sep-20 04:30N 38°20' E 015°13'1020.2
2017-Sep-20 04:00N 38°21' E 015°26'1020.0
2017-Sep-20 03:30N 38°22' E 015°38'713.7
2017-Sep-20 03:00N 38°16' E 015°42'611.9
2017-Sep-20 02:31N 38°12' E 015°37'5 9.6
2017-Sep-20 02:00N 38°07' E 015°38'0 0.2
2017-Sep-20 01:30N 38°07' E 015°38'2 3.7
2017-Sep-20 01:00N 38°06' E 015°37'917.9
2017-Sep-20 00:31N 37°57' E 015°35'1219.8
2017-Sep-19 23:54N 37°51' E 015°48'4515.6
2017-Sep-19 21:00N 38°06' E 016°42'19117.3 300 / 111012.010.8 24.017.626.0
2017-Sep-19 10:00N 41°12' E 017°36'9022.5 230 / 61012.010.8 23.014.623.0
2017-Sep-19 06:00N 42°12' E 016°06'15720.2 230 / 221013.710.8 21.010.023.0
2017-Sep-18 22:13N 44°02' E 013°32'521.6
2017-Sep-18 22:00N 44°04' E 013°27'11977.5
2017-Sep-18 22:00N 44°06' E 013°12'510.2 010 / 201013.410.8 17.013.524.0
2017-Sep-18 21:30N 44°11' E 013°15'1021.0
2017-Sep-18 21:00N 44°20' E 013°08'1121.1
2017-Sep-18 20:30N 44°30' E 013°03'1020.9
2017-Sep-18 20:00N 44°40' E 012°58'1021.0
2017-Sep-18 19:30N 44°50' E 012°54'1121.0
2017-Sep-18 19:00N 44°59' E 012°48'1019.9
2017-Sep-18 18:30N 45°08' E 012°40'917.4
2017-Sep-18 18:00N 45°13' E 012°31'917.7
2017-Sep-18 17:30N 45°22' E 012°30'611.1
2017-Sep-18 17:00N 45°26' E 012°24'3 5.3
2017-Sep-18 16:30N 45°26' E 012°20'1 2.6
2017-Sep-18 16:01N 45°26' E 012°19'0 0.2
2017-Sep-18 15:28N 45°26' E 012°19'0 0.0
2017-Sep-18 14:58N 45°26' E 012°19'0 0.0
2017-Sep-18 14:28N 45°26' E 012°19'0 0.0
2017-Sep-18 13:58N 45°26' E 012°19'0 0.0
2017-Sep-18 13:25N 45°26' E 012°19'0 0.0
2017-Sep-18 12:55N 45°26' E 012°19'0 0.0
2017-Sep-18 12:28N 45°26' E 012°19'0 0.0
2017-Sep-18 11:58N 45°26' E 012°19'0 0.0
2017-Sep-18 11:28N 45°26' E 012°19'0 0.0
2017-Sep-18 10:58N 45°26' E 012°19'0 0.0
2017-Sep-18 10:28N 45°26' E 012°19'0 0.0
2017-Sep-18 09:58N 45°26' E 012°19'0 0.0
2017-Sep-18 09:28N 45°26' E 012°19'0 0.0
2017-Sep-18 08:55N 45°26' E 012°19'0 0.0
2017-Sep-18 08:28N 45°26' E 012°19'0 0.0
2017-Sep-18 07:58N 45°26' E 012°19'0 0.0
2017-Sep-18 07:25N 45°26' E 012°19'0 0.0
2017-Sep-18 06:58N 45°26' E 012°19'0 0.0
2017-Sep-18 06:28N 45°26' E 012°19'0 0.0
2017-Sep-18 05:58N 45°26' E 012°19'0 0.0
2017-Sep-18 05:28N 45°26' E 012°19'0 0.0
2017-Sep-18 04:59N 45°26' E 012°19'1 1.5
2017-Sep-18 04:30N 45°26' E 012°19'2 4.9
2017-Sep-18 04:00N 45°26' E 012°23'4 7.9
2017-Sep-18 03:30N 45°24' E 012°28'510.6
2017-Sep-18 03:00N 45°20' E 012°32'815.3
2017-Sep-18 02:30N 45°13' E 012°38'816.7
2017-Sep-18 02:00N 45°09' E 012°48'816.7
2017-Sep-18 01:30N 45°05' E 012°59'816.5
2017-Sep-18 01:00N 45°01' E 013°09'816.1
2017-Sep-18 00:30N 44°57' E 013°19'816.7
2017-Sep-18 00:00N 44°51' E 013°26'917.3
2017-Sep-17 23:30N 44°44' E 013°33'1019.6
2017-Sep-17 23:00N 44°35' E 013°40'1020.0
2017-Sep-17 22:30N 44°27' E 013°48'2344.1
2017-Sep-17 22:00N 44°06' E 014°00'177 7.4 260 / 221017.210.8 22.0 8.923.0
2017-Sep-16 22:00N 42°24' E 017°18'78 3.5 140 / 301015.110.8 24.019.424.0
2017-Sep-15 23:38N 41°28' E 018°31'1718.2
2017-Sep-15 22:42N 41°12' E 018°38'618.2
2017-Sep-15 22:21N 41°06' E 018°41'918.4
2017-Sep-15 21:53N 40°58' E 018°44'718.3
2017-Sep-15 21:30N 40°51' E 018°47'918.8
2017-Sep-15 21:00N 40°42' E 018°48'394.4 170 / 81017.510.8 24.019.426.0
2017-Sep-15 20:58N 40°42' E 018°51'818.2
2017-Sep-15 20:30N 40°34' E 018°55'1418.4
2017-Sep-15 19:43N 40°21' E 019°01'3821.9
2017-Sep-15 18:00N 39°54' E 019°36'753.3 300 / 51016.610.8 24.017.626.0
2017-Sep-15 17:51N 40°01' E 019°37'55 3.6
2017-Sep-15 02:23N 39°06' E 019°36'819.5
2017-Sep-15 01:59N 39°03' E 019°27'2219.2
2017-Sep-15 00:51N 38°53' E 019°02'719.4
2017-Sep-15 00:30N 38°51' E 018°54'1019.4
2017-Sep-15 00:00N 38°47' E 018°43'1019.6
2017-Sep-14 23:30N 38°43' E 018°31'1119.6
2017-Sep-14 22:57N 38°38' E 018°19'919.8
2017-Sep-14 22:30N 38°34' E 018°09'1019.8
2017-Sep-14 22:00N 38°30' E 017°57'1019.8
2017-Sep-14 21:30N 38°26' E 017°46'1121.4
2017-Sep-14 21:00N 38°18' E 017°36'1719.7 230 / 151018.110.8 24.019.426.0
2017-Sep-14 20:06N 38°15' E 017°14'419.3
2017-Sep-14 19:54N 38°13' E 017°10'1419.7
2017-Sep-14 19:13N 38°07' E 016°54'3629.2
2017-Sep-14 18:00N 37°54' E 016°12'910.6 200 / 121018.210.8 23.817.824.0
2017-Sep-14 17:06N 37°51' E 016°01'322.2
2017-Sep-14 16:59N 37°51' E 015°57'1122.4
2017-Sep-14 16:30N 37°51' E 015°44'1020.6
2017-Sep-14 16:00N 37°58' E 015°35'1020.6
2017-Sep-14 15:30N 38°09' E 015°35'3 5.3
2017-Sep-14 14:56N 38°12' E 015°33'0 0.0
2017-Sep-14 14:26N 38°12' E 015°33'0 0.0
2017-Sep-14 13:56N 38°12' E 015°33'0 0.0
2017-Sep-14 13:29N 38°12' E 015°33'0 0.0
2017-Sep-14 12:56N 38°12' E 015°33'0 0.0
2017-Sep-14 12:29N 38°12' E 015°33'0 0.0
2017-Sep-14 11:53N 38°12' E 015°33'0 0.0
2017-Sep-14 11:26N 38°12' E 015°33'0 0.0
2017-Sep-14 10:59N 38°12' E 015°33'0 0.0
2017-Sep-14 10:29N 38°12' E 015°33'0 0.0
2017-Sep-14 09:59N 38°12' E 015°33'0 0.0
2017-Sep-14 09:29N 38°12' E 015°33'0 0.0
2017-Sep-14 08:59N 38°12' E 015°33'0 0.0
2017-Sep-14 08:29N 38°12' E 015°33'0 0.0
2017-Sep-14 07:56N 38°12' E 015°33'0 0.0
2017-Sep-14 07:26N 38°12' E 015°33'0 0.0
2017-Sep-14 06:56N 38°12' E 015°33'0 0.0
2017-Sep-14 06:26N 38°12' E 015°33'0 0.0
2017-Sep-14 05:56N 38°12' E 015°33'0 0.0
2017-Sep-14 05:29N 38°12' E 015°33'0 0.3
2017-Sep-14 05:00N 38°12' E 015°34'510.4
2017-Sep-14 04:31N 38°15' E 015°39'510.4
2017-Sep-14 04:00N 38°20' E 015°38'713.6
2017-Sep-14 03:30N 38°21' E 015°30'815.0
2017-Sep-14 03:00N 38°20' E 015°20'714.3
2017-Sep-14 02:30N 38°19' E 015°11'1017.6
2017-Sep-14 01:58N 38°18' E 014°59'917.6
2017-Sep-14 01:25N 38°18' E 014°47'817.2
2017-Sep-14 00:59N 38°18' E 014°37'817.1
2017-Sep-14 00:30N 38°18' E 014°27'917.4
2017-Sep-14 00:00N 38°18' E 014°16'917.3
2017-Sep-13 23:30N 38°19' E 014°05'917.5
2017-Sep-13 23:00N 38°19' E 013°54'917.5
2017-Sep-13 22:30N 38°19' E 013°43'917.5
2017-Sep-13 22:00N 38°19' E 013°31'11687.8
2017-Sep-13 22:00N 38°18' E 013°18'2 3.9 060 / 141024.710.8 23.018.326.0
2017-Sep-13 21:30N 38°19' E 013°20'917.1
2017-Sep-13 21:00N 38°18' E 013°09'917.2
2017-Sep-13 20:30N 38°18' E 012°58'817.0
2017-Sep-13 20:00N 38°18' E 012°48'17617.6
2017-Sep-13 10:00N 37°54' E 009°06'7218.0 340 / 201027.410.8 25.013.025.0
2017-Sep-13 06:00N 37°42' E 007°36'   360 / 121024.827.0 23.114.126.0
Track history (hours):
 
Tides and Currents Weather Stations Pressure Air Temp Water Temp Dewpoint Dewpoint Depression Visibility Wind Speed Wind Dir Waves Ship Positions

Queen Elizabeth

Last reported at 2017-Sep-22 22:00 UTC. Time now 2017-Sep-23 02:22 UTC.
Position N 36°48' W 009°12'.

Length 294 m; draft 8 m.

Type: Passenger vessel. MMSI: 310625000.

Wind from 010 at 20 knots

Barometer 1017.7 mb
Air temperature 16.0 ° C
Visibility: greater than 10.8 NM
Dewpoint 14.3 ° C
Water temperature 18.0 ° C

Date/timePositionNaut miles runAvg speedWind from/ knotsBaromVisibWave heightAir tempDewpointWater temp
2017-Sep-22 22:00N 36°48' W 009°12'9218.4 010 / 201017.710.8 16.014.318.0
2017-Sep-22 17:00N 36°18' W 007°24'25113.2 320 / 81015.8 23.018.324.0
2017-Sep-21 22:00N 36°24' W 002°12'2214.7 040 / 101016.510.8 23.019.925.0
2017-Sep-21 20:31N 36°30' W 001°46'120.2
2017-Sep-21 20:27N 36°30' W 001°44'920.2
2017-Sep-21 20:00N 36°32' W 001°33'1020.3
2017-Sep-21 19:30N 36°35' W 001°21'1121.2
2017-Sep-21 19:00N 36°37' W 001°08'1121.7
2017-Sep-21 18:30N 36°39' W 000°55'1121.6
2017-Sep-21 18:00N 36°41' W 000°42'1121.8
2017-Sep-21 17:30N 36°43' W 000°29'1121.6
2017-Sep-21 17:00N 36°45' W 000°15'8899.4
2017-Sep-21 17:00N 36°42' W 000°24'2035.5 040 / 201014.9 25.520.225.0
2017-Sep-21 16:26N 36°48' W 000°01'921.8
2017-Sep-21 16:01N 36°51' E 000°11'1121.8
2017-Sep-21 15:31N 36°53' E 000°24'1121.8
2017-Sep-21 15:00N 36°55' E 000°37'1121.6
2017-Sep-21 14:30N 36°56' E 000°51'1121.4
2017-Sep-21 14:00N 36°58' E 001°04'1121.8
2017-Sep-21 13:30N 37°01' E 001°18'1121.9
2017-Sep-21 12:59N 37°03' E 001°31'4621.4
2017-Sep-21 10:49N 37°12' E 002°28'2513.9
2017-Sep-21 09:00N 37°12' E 003°00'6321.1 100 / 241017.710.8 23.018.326.0
2017-Sep-21 06:00N 37°24' E 004°18'9624.0 110 / 161018.1 22.014.425.0
2017-Sep-21 02:00N 37°36' E 006°18'8220.4 130 / 121019.810.8 21.014.225.0
2017-Sep-20 22:00N 37°48' E 008°00'20919.5 350 / 141021.110.8 21.010.025.0
2017-Sep-20 11:15N 38°15' E 012°23'720.3
2017-Sep-20 10:53N 38°16' E 012°33'720.2
2017-Sep-20 10:30N 38°17' E 012°42'1020.2
2017-Sep-20 10:01N 38°18' E 012°55'4248.9
2017-Sep-20 10:00N 38°18' E 013°00'612.6 300 / 171016.510.8 22.0 8.926.0
2017-Sep-20 09:31N 38°20' E 013°07'1019.8
2017-Sep-20 09:01N 38°21' E 013°20'1019.5
2017-Sep-20 08:31N 38°21' E 013°32'1019.4
2017-Sep-20 08:01N 38°21' E 013°45'1019.1
2017-Sep-20 07:31N 38°21' E 013°57'918.8
2017-Sep-20 07:01N 38°20' E 014°09'1019.2
2017-Sep-20 06:29N 38°21' E 014°22'1019.9
2017-Sep-20 06:01N 38°20' E 014°34'1020.1
2017-Sep-20 05:30N 38°20' E 014°47'1020.1
2017-Sep-20 05:00N 38°20' E 014°60'1020.5
2017-Sep-20 04:30N 38°20' E 015°13'1020.2
2017-Sep-20 04:00N 38°21' E 015°26'1020.0
2017-Sep-20 03:30N 38°22' E 015°38'713.7
2017-Sep-20 03:00N 38°16' E 015°42'611.9
2017-Sep-20 02:31N 38°12' E 015°37'5 9.6
2017-Sep-20 02:00N 38°07' E 015°38'0 0.2
2017-Sep-20 01:30N 38°07' E 015°38'2 3.7
2017-Sep-20 01:00N 38°06' E 015°37'917.9
2017-Sep-20 00:31N 37°57' E 015°35'1219.8
2017-Sep-19 23:54N 37°51' E 015°48'4515.6
2017-Sep-19 21:00N 38°06' E 016°42'19117.3 300 / 111012.010.8 24.017.626.0
2017-Sep-19 10:00N 41°12' E 017°36'9022.5 230 / 61012.010.8 23.014.623.0
2017-Sep-19 06:00N 42°12' E 016°06'15720.2 230 / 221013.710.8 21.010.023.0
2017-Sep-18 22:13N 44°02' E 013°32'521.6
2017-Sep-18 22:00N 44°04' E 013°27'11977.5
2017-Sep-18 22:00N 44°06' E 013°12'510.2 010 / 201013.410.8 17.013.524.0
2017-Sep-18 21:30N 44°11' E 013°15'1021.0
2017-Sep-18 21:00N 44°20' E 013°08'1121.1
2017-Sep-18 20:30N 44°30' E 013°03'1020.9
2017-Sep-18 20:00N 44°40' E 012°58'1021.0
2017-Sep-18 19:30N 44°50' E 012°54'1121.0
2017-Sep-18 19:00N 44°59' E 012°48'1019.9
2017-Sep-18 18:30N 45°08' E 012°40'917.4
2017-Sep-18 18:00N 45°13' E 012°31'917.7
2017-Sep-18 17:30N 45°22' E 012°30'611.1
2017-Sep-18 17:00N 45°26' E 012°24'3 5.3
2017-Sep-18 16:30N 45°26' E 012°20'1 2.6
2017-Sep-18 16:01N 45°26' E 012°19'0 0.2
2017-Sep-18 15:28N 45°26' E 012°19'0 0.0
2017-Sep-18 14:58N 45°26' E 012°19'0 0.0
2017-Sep-18 14:28N 45°26' E 012°19'0 0.0
2017-Sep-18 13:58N 45°26' E 012°19'0 0.0
2017-Sep-18 13:25N 45°26' E 012°19'0 0.0
2017-Sep-18 12:55N 45°26' E 012°19'0 0.0
2017-Sep-18 12:28N 45°26' E 012°19'0 0.0
2017-Sep-18 11:58N 45°26' E 012°19'0 0.0
2017-Sep-18 11:28N 45°26' E 012°19'0 0.0
2017-Sep-18 10:58N 45°26' E 012°19'0 0.0
2017-Sep-18 10:28N 45°26' E 012°19'0 0.0
2017-Sep-18 09:58N 45°26' E 012°19'0 0.0
2017-Sep-18 09:28N 45°26' E 012°19'0 0.0
2017-Sep-18 08:55N 45°26' E 012°19'0 0.0
2017-Sep-18 08:28N 45°26' E 012°19'0 0.0
2017-Sep-18 07:58N 45°26' E 012°19'0 0.0
2017-Sep-18 07:25N 45°26' E 012°19'0 0.0
2017-Sep-18 06:58N 45°26' E 012°19'0 0.0
2017-Sep-18 06:28N 45°26' E 012°19'0 0.0
2017-Sep-18 05:58N 45°26' E 012°19'0 0.0
2017-Sep-18 05:28N 45°26' E 012°19'0 0.0
2017-Sep-18 04:59N 45°26' E 012°19'1 1.5
2017-Sep-18 04:30N 45°26' E 012°19'2 4.9
2017-Sep-18 04:00N 45°26' E 012°23'4 7.9
2017-Sep-18 03:30N 45°24' E 012°28'510.6
2017-Sep-18 03:00N 45°20' E 012°32'815.3
2017-Sep-18 02:30N 45°13' E 012°38'816.7
2017-Sep-18 02:00N 45°09' E 012°48'816.7
2017-Sep-18 01:30N 45°05' E 012°59'816.5
2017-Sep-18 01:00N 45°01' E 013°09'816.1
2017-Sep-18 00:30N 44°57' E 013°19'816.7
2017-Sep-18 00:00N 44°51' E 013°26'917.3
2017-Sep-17 23:30N 44°44' E 013°33'1019.6
2017-Sep-17 23:00N 44°35' E 013°40'1020.0
2017-Sep-17 22:30N 44°27' E 013°48'2344.1
2017-Sep-17 22:00N 44°06' E 014°00'177 7.4 260 / 221017.210.8 22.0 8.923.0
2017-Sep-16 22:00N 42°24' E 017°18'78 3.5 140 / 301015.110.8 24.019.424.0
2017-Sep-15 23:38N 41°28' E 018°31'1718.2
2017-Sep-15 22:42N 41°12' E 018°38'618.2
2017-Sep-15 22:21N 41°06' E 018°41'918.4
2017-Sep-15 21:53N 40°58' E 018°44'718.3
2017-Sep-15 21:30N 40°51' E 018°47'918.8
2017-Sep-15 21:00N 40°42' E 018°48'394.4 170 / 81017.510.8 24.019.426.0
2017-Sep-15 20:58N 40°42' E 018°51'818.2
2017-Sep-15 20:30N 40°34' E 018°55'1418.4
2017-Sep-15 19:43N 40°21' E 019°01'3821.9
2017-Sep-15 18:00N 39°54' E 019°36'753.3 300 / 51016.610.8 24.017.626.0
2017-Sep-15 17:51N 40°01' E 019°37'55 3.6
2017-Sep-15 02:23N 39°06' E 019°36'819.5
2017-Sep-15 01:59N 39°03' E 019°27'2219.2
2017-Sep-15 00:51N 38°53' E 019°02'719.4
2017-Sep-15 00:30N 38°51' E 018°54'1019.4
2017-Sep-15 00:00N 38°47' E 018°43'1019.6
2017-Sep-14 23:30N 38°43' E 018°31'1119.6
2017-Sep-14 22:57N 38°38' E 018°19'919.8
2017-Sep-14 22:30N 38°34' E 018°09'1019.8
2017-Sep-14 22:00N 38°30' E 017°57'1019.8
2017-Sep-14 21:30N 38°26' E 017°46'1121.4
2017-Sep-14 21:00N 38°18' E 017°36'1719.7 230 / 151018.110.8 24.019.426.0
2017-Sep-14 20:06N 38°15' E 017°14'419.3
2017-Sep-14 19:54N 38°13' E 017°10'1419.7
2017-Sep-14 19:13N 38°07' E 016°54'3629.2
2017-Sep-14 18:00N 37°54' E 016°12'910.6 200 / 121018.210.8 23.817.824.0
2017-Sep-14 17:06N 37°51' E 016°01'322.2
2017-Sep-14 16:59N 37°51' E 015°57'1122.4
2017-Sep-14 16:30N 37°51' E 015°44'1020.6
2017-Sep-14 16:00N 37°58' E 015°35'1020.6
2017-Sep-14 15:30N 38°09' E 015°35'3 5.3
2017-Sep-14 14:56N 38°12' E 015°33'0 0.0
2017-Sep-14 14:26N 38°12' E 015°33'0 0.0
2017-Sep-14 13:56N 38°12' E 015°33'0 0.0
2017-Sep-14 13:29N 38°12' E 015°33'0 0.0
2017-Sep-14 12:56N 38°12' E 015°33'0 0.0
2017-Sep-14 12:29N 38°12' E 015°33'0 0.0
2017-Sep-14 11:53N 38°12' E 015°33'0 0.0
2017-Sep-14 11:26N 38°12' E 015°33'0 0.0
2017-Sep-14 10:59N 38°12' E 015°33'0 0.0
2017-Sep-14 10:29N 38°12' E 015°33'0 0.0
2017-Sep-14 09:59N 38°12' E 015°33'0 0.0
2017-Sep-14 09:29N 38°12' E 015°33'0 0.0
2017-Sep-14 08:59N 38°12' E 015°33'0 0.0
2017-Sep-14 08:29N 38°12' E 015°33'0 0.0
2017-Sep-14 07:56N 38°12' E 015°33'0 0.0
2017-Sep-14 07:26N 38°12' E 015°33'0 0.0
2017-Sep-14 06:56N 38°12' E 015°33'0 0.0
2017-Sep-14 06:26N 38°12' E 015°33'0 0.0
2017-Sep-14 05:56N 38°12' E 015°33'0 0.0
2017-Sep-14 05:29N 38°12' E 015°33'0 0.3
2017-Sep-14 05:00N 38°12' E 015°34'510.4
2017-Sep-14 04:31N 38°15' E 015°39'510.4
2017-Sep-14 04:00N 38°20' E 015°38'713.6
2017-Sep-14 03:30N 38°21' E 015°30'815.0
2017-Sep-14 03:00N 38°20' E 015°20'714.3
2017-Sep-14 02:30N 38°19' E 015°11'1017.6
2017-Sep-14 01:58N 38°18' E 014°59'917.6
2017-Sep-14 01:25N 38°18' E 014°47'817.2
2017-Sep-14 00:59N 38°18' E 014°37'817.1
2017-Sep-14 00:30N 38°18' E 014°27'917.4
2017-Sep-14 00:00N 38°18' E 014°16'917.3
2017-Sep-13 23:30N 38°19' E 014°05'917.5
2017-Sep-13 23:00N 38°19' E 013°54'917.5
2017-Sep-13 22:30N 38°19' E 013°43'917.5
2017-Sep-13 22:00N 38°19' E 013°31'11687.8
2017-Sep-13 22:00N 38°18' E 013°18'2 3.9 060 / 141024.710.8 23.018.326.0
2017-Sep-13 21:30N 38°19' E 013°20'917.1
2017-Sep-13 21:00N 38°18' E 013°09'917.2
2017-Sep-13 20:30N 38°18' E 012°58'817.0
2017-Sep-13 20:00N 38°18' E 012°48'17617.6
2017-Sep-13 10:00N 37°54' E 009°06'7218.0 340 / 201027.410.8 25.013.025.0
2017-Sep-13 06:00N 37°42' E 007°36'   360 / 121024.827.0 23.114.126.0

Dump ship's entire track history